sensor_id;sensor_type;location;lat;lon;timestamp;temperature;humidity
70534;SHT31;58088;51.186;17.130;2023-04-29T00:00:12;14.39;54.09
70534;SHT31;58088;51.186;17.130;2023-04-29T00:02:39;14.37;54.07
70534;SHT31;58088;51.186;17.130;2023-04-29T00:05:06;14.34;54.03
70534;SHT31;58088;51.186;17.130;2023-04-29T00:07:33;14.33;54.19
70534;SHT31;58088;51.186;17.130;2023-04-29T00:09:59;14.33;54.19
70534;SHT31;58088;51.186;17.130;2023-04-29T00:12:25;14.32;54.11
70534;SHT31;58088;51.186;17.130;2023-04-29T00:14:54;14.30;54.23
70534;SHT31;58088;51.186;17.130;2023-04-29T00:17:21;14.27;54.22
70534;SHT31;58088;51.186;17.130;2023-04-29T00:19:47;14.24;54.45
70534;SHT31;58088;51.186;17.130;2023-04-29T00:22:15;14.21;54.54
70534;SHT31;58088;51.186;17.130;2023-04-29T00:24:42;14.19;54.58
70534;SHT31;58088;51.186;17.130;2023-04-29T00:27:08;14.16;54.49
70534;SHT31;58088;51.186;17.130;2023-04-29T00:29:36;14.14;54.66
70534;SHT31;58088;51.186;17.130;2023-04-29T00:32:03;14.11;54.59
70534;SHT31;58088;51.186;17.130;2023-04-29T00:34:29;14.11;54.69
70534;SHT31;58088;51.186;17.130;2023-04-29T00:36:56;14.10;54.67
70534;SHT31;58088;51.186;17.130;2023-04-29T00:39:22;14.09;54.67
70534;SHT31;58088;51.186;17.130;2023-04-29T00:41:48;14.07;54.87
70534;SHT31;58088;51.186;17.130;2023-04-29T00:44:14;14.04;54.93
70534;SHT31;58088;51.186;17.130;2023-04-29T00:46:41;14.04;54.94
70534;SHT31;58088;51.186;17.130;2023-04-29T00:49:08;14.02;55.04
70534;SHT31;58088;51.186;17.130;2023-04-29T00:51:35;13.99;55.20
70534;SHT31;58088;51.186;17.130;2023-04-29T00:54:03;13.96;55.30
70534;SHT31;58088;51.186;17.130;2023-04-29T00:56:33;13.93;55.47
70534;SHT31;58088;51.186;17.130;2023-04-29T00:59:02;13.89;55.53
70534;SHT31;58088;51.186;17.130;2023-04-29T01:01:29;13.89;55.48
70534;SHT31;58088;51.186;17.130;2023-04-29T01:03:56;13.84;55.66
70534;SHT31;58088;51.186;17.130;2023-04-29T01:14:57;13.73;56.12
70534;SHT31;58088;51.186;17.130;2023-04-29T01:17:43;13.69;56.12
70534;SHT31;58088;51.186;17.130;2023-04-29T01:20:16;13.66;56.43
70534;SHT31;58088;51.186;17.130;2023-04-29T01:22:47;13.64;56.47
70534;SHT31;58088;51.186;17.130;2023-04-29T01:25:13;13.63;56.55
70534;SHT31;58088;51.186;17.130;2023-04-29T01:28:15;13.61;56.69
70534;SHT31;58088;51.186;17.130;2023-04-29T01:31:06;13.61;56.70
70534;SHT31;58088;51.186;17.130;2023-04-29T01:34:02;13.58;56.80
70534;SHT31;58088;51.186;17.130;2023-04-29T01:36:53;13.54;57.08
70534;SHT31;58088;51.186;17.130;2023-04-29T01:39:32;13.51;57.14
70534;SHT31;58088;51.186;17.130;2023-04-29T01:42:28;13.47;57.24
70534;SHT31;58088;51.186;17.130;2023-04-29T01:45:14;13.43;57.46
70534;SHT31;58088;51.186;17.130;2023-04-29T01:47:42;13.39;57.44
70534;SHT31;58088;51.186;17.130;2023-04-29T01:50:11;13.37;57.41
70534;SHT31;58088;51.186;17.130;2023-04-29T01:52:37;13.31;57.49
70534;SHT31;58088;51.186;17.130;2023-04-29T01:55:04;13.29;57.46
70534;SHT31;58088;51.186;17.130;2023-04-29T01:57:44;13.30;57.61
70534;SHT31;58088;51.186;17.130;2023-04-29T02:00:37;13.28;57.57
70534;SHT31;58088;51.186;17.130;2023-04-29T02:03:22;13.27;57.50
70534;SHT31;58088;51.186;17.130;2023-04-29T02:05:53;13.27;57.52
70534;SHT31;58088;51.186;17.130;2023-04-29T02:08:19;13.27;57.54
70534;SHT31;58088;51.186;17.130;2023-04-29T02:10:55;13.24;57.45
70534;SHT31;58088;51.186;17.130;2023-04-29T02:13:35;13.23;57.64
70534;SHT31;58088;51.186;17.130;2023-04-29T02:16:12;13.22;57.76
70534;SHT31;58088;51.186;17.130;2023-04-29T02:19:06;13.23;57.76
70534;SHT31;58088;51.186;17.130;2023-04-29T02:21:32;13.22;57.65
70534;SHT31;58088;51.186;17.130;2023-04-29T02:24:02;13.19;57.68
70534;SHT31;58088;51.186;17.130;2023-04-29T02:26:29;13.20;57.68
70534;SHT31;58088;51.186;17.130;2023-04-29T02:28:55;13.18;57.76
70534;SHT31;58088;51.186;17.130;2023-04-29T02:31:22;13.15;57.72
70534;SHT31;58088;51.186;17.130;2023-04-29T02:33:48;13.15;57.72
70534;SHT31;58088;51.186;17.130;2023-04-29T02:36:14;13.16;57.89
70534;SHT31;58088;51.186;17.130;2023-04-29T02:38:40;13.14;57.98
70534;SHT31;58088;51.186;17.130;2023-04-29T02:41:06;13.15;57.91
70534;SHT31;58088;51.186;17.130;2023-04-29T02:43:33;13.12;58.02
70534;SHT31;58088;51.186;17.130;2023-04-29T02:45:59;13.10;58.08
70534;SHT31;58088;51.186;17.130;2023-04-29T02:48:25;13.11;58.13
70534;SHT31;58088;51.186;17.130;2023-04-29T02:50:51;13.10;58.12
70534;SHT31;58088;51.186;17.130;2023-04-29T02:53:17;13.07;58.22
70534;SHT31;58088;51.186;17.130;2023-04-29T02:55:45;13.07;58.30
70534;SHT31;58088;51.186;17.130;2023-04-29T02:58:12;13.07;58.36
70534;SHT31;58088;51.186;17.130;2023-04-29T03:00:39;13.08;58.36
70534;SHT31;58088;51.186;17.130;2023-04-29T03:03:06;13.09;58.29
70534;SHT31;58088;51.186;17.130;2023-04-29T03:05:32;13.10;58.33
70534;SHT31;58088;51.186;17.130;2023-04-29T03:07:59;13.07;58.40
70534;SHT31;58088;51.186;17.130;2023-04-29T03:10:27;13.07;58.41
70534;SHT31;58088;51.186;17.130;2023-04-29T03:12:53;13.05;58.34
70534;SHT31;58088;51.186;17.130;2023-04-29T03:15:19;13.03;58.42
70534;SHT31;58088;51.186;17.130;2023-04-29T03:17:45;13.01;58.51
70534;SHT31;58088;51.186;17.130;2023-04-29T03:20:12;12.98;58.52
70534;SHT31;58088;51.186;17.130;2023-04-29T03:22:38;12.97;58.64
70534;SHT31;58088;51.186;17.130;2023-04-29T03:25:05;12.96;58.69
70534;SHT31;58088;51.186;17.130;2023-04-29T03:27:32;12.96;58.76
70534;SHT31;58088;51.186;17.130;2023-04-29T03:29:58;12.96;58.70
70534;SHT31;58088;51.186;17.130;2023-04-29T03:32:25;12.95;58.73
70534;SHT31;58088;51.186;17.130;2023-04-29T03:34:51;12.92;58.84
70534;SHT31;58088;51.186;17.130;2023-04-29T03:37:30;12.90;58.94
70534;SHT31;58088;51.186;17.130;2023-04-29T03:40:07;12.90;58.89
70534;SHT31;58088;51.186;17.130;2023-04-29T03:42:36;12.88;59.08
70534;SHT31;58088;51.186;17.130;2023-04-29T03:45:02;12.84;59.22
70534;SHT31;58088;51.186;17.130;2023-04-29T03:47:30;12.86;59.14
70534;SHT31;58088;51.186;17.130;2023-04-29T03:49:56;12.86;59.19
70534;SHT31;58088;51.186;17.130;2023-04-29T03:52:22;12.82;59.38
70534;SHT31;58088;51.186;17.130;2023-04-29T03:54:49;12.83;59.49
70534;SHT31;58088;51.186;17.130;2023-04-29T03:57:16;12.81;59.67
70534;SHT31;58088;51.186;17.130;2023-04-29T03:59:42;12.82;59.60
70534;SHT31;58088;51.186;17.130;2023-04-29T04:02:10;12.83;59.56
70534;SHT31;58088;51.186;17.130;2023-04-29T04:04:36;12.84;59.59
70534;SHT31;58088;51.186;17.130;2023-04-29T04:07:02;12.84;59.69
70534;SHT31;58088;51.186;17.130;2023-04-29T04:09:33;12.86;59.72
70534;SHT31;58088;51.186;17.130;2023-04-29T04:11:59;12.87;59.73
70534;SHT31;58088;51.186;17.130;2023-04-29T04:14:26;12.88;59.68
70534;SHT31;58088;51.186;17.130;2023-04-29T04:16:52;12.89;59.70
70534;SHT31;58088;51.186;17.130;2023-04-29T04:19:19;12.89;59.72
70534;SHT31;58088;51.186;17.130;2023-04-29T04:21:45;12.91;59.76
70534;SHT31;58088;51.186;17.130;2023-04-29T04:24:11;12.94;59.69
70534;SHT31;58088;51.186;17.130;2023-04-29T04:26:38;12.98;59.62
70534;SHT31;58088;51.186;17.130;2023-04-29T04:29:28;13.01;59.65
70534;SHT31;58088;51.186;17.130;2023-04-29T04:32:03;13.04;59.61
70534;SHT31;58088;51.186;17.130;2023-04-29T04:34:30;13.06;59.69
70534;SHT31;58088;51.186;17.130;2023-04-29T04:36:57;13.07;59.62
70534;SHT31;58088;51.186;17.130;2023-04-29T04:39:23;13.08;59.67
70534;SHT31;58088;51.186;17.130;2023-04-29T04:41:50;13.07;59.72
70534;SHT31;58088;51.186;17.130;2023-04-29T04:44:17;13.08;59.81
70534;SHT31;58088;51.186;17.130;2023-04-29T04:47:19;13.06;60.09
70534;SHT31;58088;51.186;17.130;2023-04-29T04:49:54;13.11;60.07
70534;SHT31;58088;51.186;17.130;2023-04-29T04:52:21;13.15;60.01
70534;SHT31;58088;51.186;17.130;2023-04-29T04:54:55;13.20;60.16
70534;SHT31;58088;51.186;17.130;2023-04-29T04:57:23;13.22;60.29
70534;SHT31;58088;51.186;17.130;2023-04-29T04:59:50;13.26;60.16
70534;SHT31;58088;51.186;17.130;2023-04-29T05:02:17;13.28;60.22
70534;SHT31;58088;51.186;17.130;2023-04-29T05:04:44;13.29;60.31
70534;SHT31;58088;51.186;17.130;2023-04-29T05:07:11;13.29;60.21
70534;SHT31;58088;51.186;17.130;2023-04-29T05:09:55;13.28;60.26
70534;SHT31;58088;51.186;17.130;2023-04-29T05:12:21;13.30;60.22
70534;SHT31;58088;51.186;17.130;2023-04-29T05:14:53;13.34;60.38
70534;SHT31;58088;51.186;17.130;2023-04-29T05:17:19;13.40;60.19
70534;SHT31;58088;51.186;17.130;2023-04-29T05:19:45;13.47;60.06
70534;SHT31;58088;51.186;17.130;2023-04-29T05:22:11;13.54;60.17
70534;SHT31;58088;51.186;17.130;2023-04-29T05:24:39;13.60;59.96
70534;SHT31;58088;51.186;17.130;2023-04-29T05:27:06;13.67;59.90
70534;SHT31;58088;51.186;17.130;2023-04-29T05:29:32;13.79;59.79
70534;SHT31;58088;51.186;17.130;2023-04-29T05:31:59;13.97;59.52
70534;SHT31;58088;51.186;17.130;2023-04-29T05:34:25;14.35;59.22
70534;SHT31;58088;51.186;17.130;2023-04-29T05:36:51;14.64;58.54
70534;SHT31;58088;51.186;17.130;2023-04-29T05:39:18;14.84;58.31
70534;SHT31;58088;51.186;17.130;2023-04-29T05:41:46;15.42;57.56
70534;SHT31;58088;51.186;17.130;2023-04-29T05:44:25;15.80;56.64
70534;SHT31;58088;51.186;17.130;2023-04-29T05:46:51;15.88;56.19
70534;SHT31;58088;51.186;17.130;2023-04-29T05:49:17;16.00;55.76
70534;SHT31;58088;51.186;17.130;2023-04-29T05:51:43;16.12;55.52
70534;SHT31;58088;51.186;17.130;2023-04-29T05:54:10;16.24;55.20
70534;SHT31;58088;51.186;17.130;2023-04-29T05:56:36;16.30;54.93
70534;SHT31;58088;51.186;17.130;2023-04-29T05:59:02;16.44;54.94
70534;SHT31;58088;51.186;17.130;2023-04-29T06:01:29;17.06;53.96
70534;SHT31;58088;51.186;17.130;2023-04-29T06:03:56;17.52;53.23
70534;SHT31;58088;51.186;17.130;2023-04-29T06:06:54;17.57;52.65
70534;SHT31;58088;51.186;17.130;2023-04-29T06:09:40;17.67;52.48
70534;SHT31;58088;51.186;17.130;2023-04-29T06:12:09;17.76;52.04
70534;SHT31;58088;51.186;17.130;2023-04-29T06:14:36;17.79;51.93
70534;SHT31;58088;51.186;17.130;2023-04-29T06:17:02;17.76;52.16
70534;SHT31;58088;51.186;17.130;2023-04-29T06:19:28;17.78;52.02
70534;SHT31;58088;51.186;17.130;2023-04-29T06:21:57;17.85;52.00
70534;SHT31;58088;51.186;17.130;2023-04-29T06:24:23;17.91;51.77
70534;SHT31;58088;51.186;17.130;2023-04-29T06:26:49;17.92;51.57
70534;SHT31;58088;51.186;17.130;2023-04-29T06:29:16;17.90;51.37
70534;SHT31;58088;51.186;17.130;2023-04-29T06:31:45;17.84;51.32
70534;SHT31;58088;51.186;17.130;2023-04-29T06:34:11;17.80;51.54
70534;SHT31;58088;51.186;17.130;2023-04-29T06:36:48;17.78;51.62
70534;SHT31;58088;51.186;17.130;2023-04-29T06:39:34;17.73;51.94
70534;SHT31;58088;51.186;17.130;2023-04-29T06:42:39;17.65;52.00
70534;SHT31;58088;51.186;17.130;2023-04-29T06:45:24;17.63;52.37
70534;SHT31;58088;51.186;17.130;2023-04-29T06:48:23;17.57;52.34
70534;SHT31;58088;51.186;17.130;2023-04-29T06:50:53;17.49;52.39
70534;SHT31;58088;51.186;17.130;2023-04-29T06:53:23;17.41;52.61
70534;SHT31;58088;51.186;17.130;2023-04-29T06:55:49;17.34;52.95
70534;SHT31;58088;51.186;17.130;2023-04-29T06:58:16;17.33;53.29
70534;SHT31;58088;51.186;17.130;2023-04-29T07:00:44;17.30;53.10
70534;SHT31;58088;51.186;17.130;2023-04-29T07:03:15;17.25;53.20
70534;SHT31;58088;51.186;17.130;2023-04-29T07:05:43;17.23;53.29
70534;SHT31;58088;51.186;17.130;2023-04-29T07:08:11;17.22;53.64
70534;SHT31;58088;51.186;17.130;2023-04-29T07:10:38;17.20;53.76
70534;SHT31;58088;51.186;17.130;2023-04-29T07:13:04;17.22;54.08
70534;SHT31;58088;51.186;17.130;2023-04-29T07:15:35;17.24;54.40
70534;SHT31;58088;51.186;17.130;2023-04-29T07:18:03;17.24;54.71
70534;SHT31;58088;51.186;17.130;2023-04-29T07:20:30;17.18;54.85
70534;SHT31;58088;51.186;17.130;2023-04-29T07:22:57;17.13;54.87
70534;SHT31;58088;51.186;17.130;2023-04-29T07:25:25;17.07;55.26
70534;SHT31;58088;51.186;17.130;2023-04-29T07:27:54;17.02;55.88
70534;SHT31;58088;51.186;17.130;2023-04-29T07:30:23;16.99;56.65
70534;SHT31;58088;51.186;17.130;2023-04-29T07:32:50;16.94;56.77
70534;SHT31;58088;51.186;17.130;2023-04-29T07:35:17;16.86;57.51
70534;SHT31;58088;51.186;17.130;2023-04-29T07:37:43;16.76;58.08
70534;SHT31;58088;51.186;17.130;2023-04-29T07:40:10;16.64;58.66
70534;SHT31;58088;51.186;17.130;2023-04-29T07:42:37;16.57;59.17
70534;SHT31;58088;51.186;17.130;2023-04-29T07:45:05;16.57;59.76
70534;SHT31;58088;51.186;17.130;2023-04-29T07:47:32;16.58;60.25
70534;SHT31;58088;51.186;17.130;2023-04-29T07:49:59;16.56;60.30
70534;SHT31;58088;51.186;17.130;2023-04-29T07:52:25;16.51;60.69
70534;SHT31;58088;51.186;17.130;2023-04-29T07:54:52;16.51;61.32
70534;SHT31;58088;51.186;17.130;2023-04-29T07:57:20;16.51;61.36
70534;SHT31;58088;51.186;17.130;2023-04-29T07:59:53;16.49;61.41
70534;SHT31;58088;51.186;17.130;2023-04-29T08:02:20;16.47;61.68
70534;SHT31;58088;51.186;17.130;2023-04-29T08:04:46;16.44;62.23
70534;SHT31;58088;51.186;17.130;2023-04-29T08:07:13;16.44;62.52
70534;SHT31;58088;51.186;17.130;2023-04-29T08:09:39;16.41;62.50
70534;SHT31;58088;51.186;17.130;2023-04-29T08:12:05;16.39;62.65
70534;SHT31;58088;51.186;17.130;2023-04-29T08:14:32;16.38;62.64
70534;SHT31;58088;51.186;17.130;2023-04-29T08:16:59;16.34;62.81
70534;SHT31;58088;51.186;17.130;2023-04-29T08:19:25;16.33;62.99
70534;SHT31;58088;51.186;17.130;2023-04-29T08:21:52;16.32;63.09
70534;SHT31;58088;51.186;17.130;2023-04-29T08:24:18;16.30;63.25
70534;SHT31;58088;51.186;17.130;2023-04-29T08:26:46;16.28;63.34
70534;SHT31;58088;51.186;17.130;2023-04-29T08:29:12;16.26;63.73
70534;SHT31;58088;51.186;17.130;2023-04-29T08:31:39;16.25;63.85
70534;SHT31;58088;51.186;17.130;2023-04-29T08:34:05;16.22;64.04
70534;SHT31;58088;51.186;17.130;2023-04-29T08:36:31;16.19;64.23
70534;SHT31;58088;51.186;17.130;2023-04-29T08:38:58;16.15;64.42
70534;SHT31;58088;51.186;17.130;2023-04-29T08:41:24;16.15;64.42
70534;SHT31;58088;51.186;17.130;2023-04-29T08:43:51;16.14;64.62
70534;SHT31;58088;51.186;17.130;2023-04-29T08:46:17;16.13;64.93
70534;SHT31;58088;51.186;17.130;2023-04-29T08:48:45;16.08;64.81
70534;SHT31;58088;51.186;17.130;2023-04-29T08:51:12;16.07;64.91
70534;SHT31;58088;51.186;17.130;2023-04-29T08:53:39;16.03;65.11
70534;SHT31;58088;51.186;17.130;2023-04-29T08:56:08;16.00;65.34
70534;SHT31;58088;51.186;17.130;2023-04-29T08:58:45;16.00;65.63
70534;SHT31;58088;51.186;17.130;2023-04-29T09:01:12;15.99;65.76
70534;SHT31;58088;51.186;17.130;2023-04-29T09:06:40;15.98;66.29
70534;SHT31;58088;51.186;17.130;2023-04-29T09:09:06;15.97;66.30
70534;SHT31;58088;51.186;17.130;2023-04-29T09:11:34;15.96;66.69
70534;SHT31;58088;51.186;17.130;2023-04-29T09:14:02;15.96;66.94
70534;SHT31;58088;51.186;17.130;2023-04-29T09:16:32;15.97;67.31
70534;SHT31;58088;51.186;17.130;2023-04-29T09:19:01;16.00;67.35
70534;SHT31;58088;51.186;17.130;2023-04-29T09:21:28;16.04;67.43
70534;SHT31;58088;51.186;17.130;2023-04-29T09:23:58;16.08;67.56
70534;SHT31;58088;51.186;17.130;2023-04-29T09:26:26;16.14;67.57
70534;SHT31;58088;51.186;17.130;2023-04-29T09:29:09;16.19;67.30
70534;SHT31;58088;51.186;17.130;2023-04-29T09:31:43;16.24;67.63
70534;SHT31;58088;51.186;17.130;2023-04-29T09:34:10;16.32;67.77
70534;SHT31;58088;51.186;17.130;2023-04-29T09:36:45;16.42;67.81
70534;SHT31;58088;51.186;17.130;2023-04-29T09:39:14;16.51;67.50
70534;SHT31;58088;51.186;17.130;2023-04-29T09:44:22;16.71;67.59
70534;SHT31;58088;51.186;17.130;2023-04-29T09:46:55;16.84;67.27
70534;SHT31;58088;51.186;17.130;2023-04-29T09:49:31;16.98;67.45
70534;SHT31;58088;51.186;17.130;2023-04-29T09:52:07;17.21;67.45
70534;SHT31;58088;51.186;17.130;2023-04-29T09:54:41;17.45;66.90
70534;SHT31;58088;51.186;17.130;2023-04-29T09:57:09;17.63;66.35
70534;SHT31;58088;51.186;17.130;2023-04-29T09:59:40;17.82;66.32
70534;SHT31;58088;51.186;17.130;2023-04-29T10:04:45;18.01;65.56
70534;SHT31;58088;51.186;17.130;2023-04-29T10:07:19;18.07;65.84
70534;SHT31;58088;51.186;17.130;2023-04-29T10:09:46;18.15;65.49
70534;SHT31;58088;51.186;17.130;2023-04-29T10:12:17;18.23;65.04
70534;SHT31;58088;51.186;17.130;2023-04-29T10:15:32;18.27;64.92
70534;SHT31;58088;51.186;17.130;2023-04-29T10:18:13;18.38;64.65
70534;SHT31;58088;51.186;17.130;2023-04-29T10:20:46;18.47;64.39
70534;SHT31;58088;51.186;17.130;2023-04-29T10:23:14;18.53;64.20
70534;SHT31;58088;51.186;17.130;2023-04-29T10:25:43;18.62;63.80
70534;SHT31;58088;51.186;17.130;2023-04-29T10:28:13;18.69;63.07
70534;SHT31;58088;51.186;17.130;2023-04-29T10:30:43;18.76;63.11
70534;SHT31;58088;51.186;17.130;2023-04-29T10:33:11;18.86;62.94
70534;SHT31;58088;51.186;17.130;2023-04-29T10:35:41;19.01;62.64
70534;SHT31;58088;51.186;17.130;2023-04-29T10:41:14;19.28;62.33
70534;SHT31;58088;51.186;17.130;2023-04-29T10:43:49;19.38;61.91
70534;SHT31;58088;51.186;17.130;2023-04-29T10:46:18;19.45;61.39
70534;SHT31;58088;51.186;17.130;2023-04-29T10:48:49;19.58;61.03
70534;SHT31;58088;51.186;17.130;2023-04-29T10:51:29;19.79;60.38
70534;SHT31;58088;51.186;17.130;2023-04-29T10:54:08;19.97;60.22
70534;SHT31;58088;51.186;17.130;2023-04-29T10:56:43;20.12;60.13
70534;SHT31;58088;51.186;17.130;2023-04-29T10:59:17;20.25;59.52
70534;SHT31;58088;51.186;17.130;2023-04-29T11:02:06;20.35;58.89
70534;SHT31;58088;51.186;17.130;2023-04-29T11:04:34;20.36;58.36
70534;SHT31;58088;51.186;17.130;2023-04-29T11:07:35;20.41;57.70
70534;SHT31;58088;51.186;17.130;2023-04-29T11:10:01;20.50;57.83
70534;SHT31;58088;51.186;17.130;2023-04-29T11:12:28;20.60;57.61
70534;SHT31;58088;51.186;17.130;2023-04-29T11:14:56;20.65;56.58
70534;SHT31;58088;51.186;17.130;2023-04-29T11:17:35;20.70;56.82
70534;SHT31;58088;51.186;17.130;2023-04-29T11:20:03;20.78;56.88
70534;SHT31;58088;51.186;17.130;2023-04-29T11:22:37;20.81;56.18
70534;SHT31;58088;51.186;17.130;2023-04-29T11:25:06;20.79;55.70
70534;SHT31;58088;51.186;17.130;2023-04-29T11:27:37;20.91;56.14
70534;SHT31;58088;51.186;17.130;2023-04-29T11:30:07;21.11;55.99
70534;SHT31;58088;51.186;17.130;2023-04-29T11:32:37;21.24;55.29
70534;SHT31;58088;51.186;17.130;2023-04-29T11:35:08;21.28;54.71
70534;SHT31;58088;51.186;17.130;2023-04-29T11:37:38;21.24;54.22
70534;SHT31;58088;51.186;17.130;2023-04-29T11:40:09;21.24;53.95
70534;SHT31;58088;51.186;17.130;2023-04-29T11:42:45;21.32;55.09
70534;SHT31;58088;51.186;17.130;2023-04-29T11:45:17;21.28;54.07
70534;SHT31;58088;51.186;17.130;2023-04-29T11:47:48;21.23;54.72
70534;SHT31;58088;51.186;17.130;2023-04-29T11:50:16;21.21;54.17
70534;SHT31;58088;51.186;17.130;2023-04-29T11:52:45;21.25;54.12
70534;SHT31;58088;51.186;17.130;2023-04-29T11:55:14;21.40;53.87
70534;SHT31;58088;51.186;17.130;2023-04-29T11:57:44;21.59;53.35
70534;SHT31;58088;51.186;17.130;2023-04-29T12:00:17;21.73;52.69
70534;SHT31;58088;51.186;17.130;2023-04-29T12:02:44;21.81;52.77
70534;SHT31;58088;51.186;17.130;2023-04-29T12:05:13;21.76;51.89
70534;SHT31;58088;51.186;17.130;2023-04-29T12:07:41;21.66;51.76
70534;SHT31;58088;51.186;17.130;2023-04-29T12:10:14;21.71;52.09
70534;SHT31;58088;51.186;17.130;2023-04-29T12:12:40;21.71;52.05
70534;SHT31;58088;51.186;17.130;2023-04-29T12:15:08;21.74;53.41
70534;SHT31;58088;51.186;17.130;2023-04-29T12:17:35;21.89;52.62
70534;SHT31;58088;51.186;17.130;2023-04-29T12:20:04;21.90;51.95
70534;SHT31;58088;51.186;17.130;2023-04-29T12:22:32;21.83;52.52
70534;SHT31;58088;51.186;17.130;2023-04-29T12:24:58;21.74;52.10
70534;SHT31;58088;51.186;17.130;2023-04-29T12:27:28;21.63;51.49
70534;SHT31;58088;51.186;17.130;2023-04-29T12:29:55;21.51;51.33
70534;SHT31;58088;51.186;17.130;2023-04-29T12:32:23;21.34;51.41
70534;SHT31;58088;51.186;17.130;2023-04-29T12:34:50;21.15;52.44
70534;SHT31;58088;51.186;17.130;2023-04-29T12:37:17;20.86;53.12
70534;SHT31;58088;51.186;17.130;2023-04-29T12:39:48;20.62;54.27
70534;SHT31;58088;51.186;17.130;2023-04-29T12:42:15;20.36;55.56
70534;SHT31;58088;51.186;17.130;2023-04-29T12:44:43;20.05;57.18
70534;SHT31;58088;51.186;17.130;2023-04-29T12:47:14;19.73;58.53
70534;SHT31;58088;51.186;17.130;2023-04-29T12:49:42;19.52;59.67
70534;SHT31;58088;51.186;17.130;2023-04-29T12:52:10;19.37;60.73
70534;SHT31;58088;51.186;17.130;2023-04-29T12:54:37;19.33;60.95
70534;SHT31;58088;51.186;17.130;2023-04-29T12:57:08;19.28;61.25
70534;SHT31;58088;51.186;17.130;2023-04-29T12:59:35;19.25;61.72
70534;SHT31;58088;51.186;17.130;2023-04-29T13:02:02;19.27;61.95
70534;SHT31;58088;51.186;17.130;2023-04-29T13:04:29;19.47;63.07
70534;SHT31;58088;51.186;17.130;2023-04-29T13:06:55;19.63;62.70
70534;SHT31;58088;51.186;17.130;2023-04-29T13:09:28;19.80;62.48
70534;SHT31;58088;51.186;17.130;2023-04-29T13:11:56;19.94;61.99
70534;SHT31;58088;51.186;17.130;2023-04-29T13:14:23;20.07;62.16
70534;SHT31;58088;51.186;17.130;2023-04-29T13:16:49;20.17;62.37
70534;SHT31;58088;51.186;17.130;2023-04-29T13:19:16;20.30;61.63
70534;SHT31;58088;51.186;17.130;2023-04-29T13:21:42;20.35;59.88
70534;SHT31;58088;51.186;17.130;2023-04-29T13:24:08;20.34;59.27
70534;SHT31;58088;51.186;17.130;2023-04-29T13:26:35;20.34;58.83
70534;SHT31;58088;51.186;17.130;2023-04-29T13:29:02;20.32;58.78
70534;SHT31;58088;51.186;17.130;2023-04-29T13:31:28;20.36;58.74
70534;SHT31;58088;51.186;17.130;2023-04-29T13:33:55;20.42;58.96
70534;SHT31;58088;51.186;17.130;2023-04-29T13:36:21;20.42;58.26
70534;SHT31;58088;51.186;17.130;2023-04-29T13:38:48;20.42;57.52
70534;SHT31;58088;51.186;17.130;2023-04-29T13:41:14;20.48;57.61
70534;SHT31;58088;51.186;17.130;2023-04-29T13:43:40;20.51;56.76
70534;SHT31;58088;51.186;17.130;2023-04-29T13:46:06;20.57;56.37
70534;SHT31;58088;51.186;17.130;2023-04-29T13:48:33;20.64;56.34
70534;SHT31;58088;51.186;17.130;2023-04-29T13:50:59;20.67;56.11
70534;SHT31;58088;51.186;17.130;2023-04-29T13:53:26;20.67;55.75
70534;SHT31;58088;51.186;17.130;2023-04-29T13:55:52;20.63;55.41
70534;SHT31;58088;51.186;17.130;2023-04-29T13:58:18;20.67;55.93
70534;SHT31;58088;51.186;17.130;2023-04-29T14:00:45;20.70;55.52
70534;SHT31;58088;51.186;17.130;2023-04-29T14:03:12;20.65;55.61
70534;SHT31;58088;51.186;17.130;2023-04-29T14:05:38;20.61;55.68
70534;SHT31;58088;51.186;17.130;2023-04-29T14:08:06;20.54;55.37
70534;SHT31;58088;51.186;17.130;2023-04-29T14:10:32;20.47;55.78
70534;SHT31;58088;51.186;17.130;2023-04-29T14:12:58;20.37;56.04
70534;SHT31;58088;51.186;17.130;2023-04-29T14:15:24;20.21;56.01
70534;SHT31;58088;51.186;17.130;2023-04-29T14:17:50;20.01;56.15
70534;SHT31;58088;51.186;17.130;2023-04-29T14:20:17;19.88;56.63
70534;SHT31;58088;51.186;17.130;2023-04-29T14:22:44;19.71;57.11
70534;SHT31;58088;51.186;17.130;2023-04-29T14:25:10;19.49;57.65
70534;SHT31;58088;51.186;17.130;2023-04-29T14:27:37;19.24;59.08
70534;SHT31;58088;51.186;17.130;2023-04-29T14:30:03;18.93;60.13
70534;SHT31;58088;51.186;17.130;2023-04-29T14:32:30;18.70;60.96
70534;SHT31;58088;51.186;17.130;2023-04-29T14:34:56;18.68;61.68
70534;SHT31;58088;51.186;17.130;2023-04-29T14:37:23;18.75;62.02
70534;SHT31;58088;51.186;17.130;2023-04-29T14:39:49;18.83;61.97
70534;SHT31;58088;51.186;17.130;2023-04-29T14:42:15;18.93;61.57
70534;SHT31;58088;51.186;17.130;2023-04-29T14:44:43;19.02;61.02
70534;SHT31;58088;51.186;17.130;2023-04-29T14:47:09;19.07;60.85
70534;SHT31;58088;51.186;17.130;2023-04-29T14:49:35;19.14;59.84
70534;SHT31;58088;51.186;17.130;2023-04-29T14:52:01;19.23;59.63
70534;SHT31;58088;51.186;17.130;2023-04-29T14:54:28;19.31;59.26
70534;SHT31;58088;51.186;17.130;2023-04-29T14:56:54;19.33;59.25
70534;SHT31;58088;51.186;17.130;2023-04-29T14:59:20;19.34;59.39
70534;SHT31;58088;51.186;17.130;2023-04-29T15:01:47;19.29;59.19
70534;SHT31;58088;51.186;17.130;2023-04-29T15:04:13;19.24;59.72
70534;SHT31;58088;51.186;17.130;2023-04-29T15:06:39;19.26;60.02
70534;SHT31;58088;51.186;17.130;2023-04-29T15:09:06;19.24;60.11
70534;SHT31;58088;51.186;17.130;2023-04-29T15:11:32;19.18;60.54
70534;SHT31;58088;51.186;17.130;2023-04-29T15:13:58;19.13;60.95
70534;SHT31;58088;51.186;17.130;2023-04-29T15:16:24;19.06;61.16
70534;SHT31;58088;51.186;17.130;2023-04-29T15:18:53;18.99;61.67
70534;SHT31;58088;51.186;17.130;2023-04-29T15:21:19;18.88;62.10
70534;SHT31;58088;51.186;17.130;2023-04-29T15:23:46;18.65;62.09
70534;SHT31;58088;51.186;17.130;2023-04-29T15:26:13;18.19;62.04
70534;SHT31;58088;51.186;17.130;2023-04-29T15:28:39;17.75;63.01
70534;SHT31;58088;51.186;17.130;2023-04-29T15:31:07;17.44;63.83
70534;SHT31;58088;51.186;17.130;2023-04-29T15:33:34;17.27;64.48
70534;SHT31;58088;51.186;17.130;2023-04-29T15:36:01;17.10;64.82
70534;SHT31;58088;51.186;17.130;2023-04-29T15:38:27;16.86;65.30
70534;SHT31;58088;51.186;17.130;2023-04-29T15:40:54;16.67;65.83
70534;SHT31;58088;51.186;17.130;2023-04-29T15:43:28;16.50;66.35
70534;SHT31;58088;51.186;17.130;2023-04-29T15:45:57;16.36;66.96
70534;SHT31;58088;51.186;17.130;2023-04-29T15:48:24;16.24;67.46